Zeus — V2OR — position and weather

sailwx.info

Track history (hours):
 
Tides and Currents Weather Stations Pressure Air Temp Water Temp Dewpoint Dewpoint Depression Visibility Wind Speed Wind Dir Waves Ship Positions

Zeus

Last reported at 2015-Apr-02 05:33 UTC. Time now 2015-Apr-02 07:50 UTC.
Position N 31°57' W 012°26'.

Length 90 m; draft 4.5 m.

Type: Cargo ship. MMSI: 304011025.

Date/timePositionNaut miles runAvg speedWind from/ knotsBaromVisibWave heightAir tempDewpointWater temp
2015-Apr-02 05:33N 31°57' W 012°26'20 8.3
2015-Apr-02 03:10N 31°38' W 012°31'24 8.2
2015-Apr-02 00:11N 31°14' W 012°36'133 7.9
2015-Apr-01 07:13N 29°03' W 013°05'8 7.6
2015-Apr-01 06:07N 28°54' W 013°07'52 7.6
2015-Mar-31 23:17N 28°04' W 013°18'13 7.3
2015-Mar-31 21:34N 27°51' W 013°20'9 7.3
2015-Mar-31 20:16N 27°42' W 013°22'28 7.4
2015-Mar-31 16:31N 27°15' W 013°28'  
2015-Mar-24 03:10N 35°57' W 005°34'6 7.6
2015-Mar-24 02:24N 35°59' W 005°28'6 7.0
2015-Mar-24 01:33N 36°01' W 005°21'6 6.2
2015-Mar-24 00:33N 36°03' W 005°13'  
Track history (hours):
 
Tides and Currents Weather Stations Pressure Air Temp Water Temp Dewpoint Dewpoint Depression Visibility Wind Speed Wind Dir Waves Ship Positions

Zeus

Last reported at 2015-Apr-02 05:33 UTC. Time now 2015-Apr-02 07:50 UTC.
Position N 31°57' W 012°26'.

Length 90 m; draft 4.5 m.

Type: Cargo ship. MMSI: 304011025.

Date/timePositionNaut miles runAvg speedWind from/ knotsBaromVisibWave heightAir tempDewpointWater temp
2015-Apr-02 05:33N 31°57' W 012°26'20 8.3
2015-Apr-02 03:10N 31°38' W 012°31'24 8.2
2015-Apr-02 00:11N 31°14' W 012°36'133 7.9
2015-Apr-01 07:13N 29°03' W 013°05'8 7.6
2015-Apr-01 06:07N 28°54' W 013°07'52 7.6
2015-Mar-31 23:17N 28°04' W 013°18'13 7.3
2015-Mar-31 21:34N 27°51' W 013°20'9 7.3
2015-Mar-31 20:16N 27°42' W 013°22'28 7.4
2015-Mar-31 16:31N 27°15' W 013°28'  
2015-Mar-24 03:10N 35°57' W 005°34'6 7.6
2015-Mar-24 02:24N 35°59' W 005°28'6 7.0
2015-Mar-24 01:33N 36°01' W 005°21'6 6.2
2015-Mar-24 00:33N 36°03' W 005°13'  

Dump ship's entire track history